createdAt,value
2022-12-04T00:00:24.560Z,102125.53
2022-12-04T00:02:51.143Z,102113.22
2022-12-04T00:05:17.747Z,102115.91
2022-12-04T00:07:45.303Z,102115.97
2022-12-04T00:10:12.135Z,102122.78
2022-12-04T00:12:38.581Z,102117.59
2022-12-04T00:17:52.130Z,102118.44
2022-12-04T00:20:18.561Z,102123.53
2022-12-04T00:22:44.996Z,102105.50
2022-12-04T00:25:11.439Z,102120.16
2022-12-04T00:27:37.851Z,102121.94
2022-12-04T00:30:05.102Z,102116.66
2022-12-04T00:32:31.527Z,102122.75
2022-12-04T00:34:57.932Z,102121.06
2022-12-04T00:37:24.505Z,102127.91
2022-12-04T00:39:50.966Z,102114.09
2022-12-04T00:42:17.466Z,102109.72
2022-12-04T00:44:43.872Z,102125.25
2022-12-04T00:47:10.566Z,102134.94
2022-12-04T00:49:37.238Z,102105.38
2022-12-04T00:52:03.833Z,102122.69
2022-12-04T00:54:31.687Z,102129.53
2022-12-04T00:56:58.103Z,102121.81
2022-12-04T00:59:24.492Z,102120.84
2022-12-04T01:01:51.020Z,102121.63
2022-12-04T01:04:17.649Z,102113.78
2022-12-04T01:06:44.121Z,102108.69
2022-12-04T01:09:10.807Z,102102.56
2022-12-04T01:11:38.557Z,102110.38
2022-12-04T01:14:05.184Z,102115.50
2022-12-04T01:16:37.577Z,102127.59
2022-12-04T01:19:05.722Z,102121.47
2022-12-04T01:21:32.353Z,102120.59
2022-12-04T01:23:59.633Z,102109.38
2022-12-04T01:26:27.165Z,102110.22
2022-12-04T01:28:53.706Z,102112.81
2022-12-04T01:31:21.906Z,102115.31
2022-12-04T01:33:49.880Z,102117.03
2022-12-04T01:36:21.913Z,102100.47
2022-12-04T01:38:48.722Z,102109.06
2022-12-04T01:41:18.097Z,102112.53
2022-12-04T01:43:44.644Z,102094.25
2022-12-04T01:46:11.940Z,102107.31
2022-12-04T01:48:50.358Z,102107.19
2022-12-04T01:51:20.945Z,102103.69
2022-12-04T01:53:53.207Z,102090.81
2022-12-04T01:56:24.442Z,102108.00
2022-12-04T01:58:53.981Z,102097.69
2022-12-04T02:01:20.895Z,102082.94
2022-12-04T02:03:47.440Z,102096.66
2022-12-04T02:06:13.865Z,102094.88
2022-12-04T02:08:41.011Z,102101.19
2022-12-04T02:11:23.553Z,102104.28
2022-12-04T02:14:01.175Z,102097.31
2022-12-04T02:16:44.797Z,102101.00
2022-12-04T02:19:35.923Z,102099.88
2022-12-04T02:22:11.313Z,102092.78
2022-12-04T02:24:57.953Z,102082.22
2022-12-04T02:27:41.801Z,102076.47
2022-12-04T02:30:15.233Z,102078.72
2022-12-04T02:33:15.811Z,102084.69
2022-12-04T02:36:17.136Z,102080.34
2022-12-04T02:39:15.613Z,102076.78
2022-12-04T02:41:47.926Z,102068.25
2022-12-04T02:44:25.932Z,102057.13
2022-12-04T02:46:57.966Z,102050.41
2022-12-04T02:49:34.106Z,102075.28
2022-12-04T02:52:02.504Z,102066.59
2022-12-04T02:54:34.453Z,102082.06
2022-12-04T02:57:04.042Z,102060.66
2022-12-04T02:59:36.437Z,102072.53
2022-12-04T03:02:36.679Z,102061.41
2022-12-04T03:05:09.721Z,102082.00
2022-12-04T03:07:45.118Z,102068.00
2022-12-04T03:10:24.174Z,102078.44
2022-12-04T03:12:55.666Z,102086.69
2022-12-04T03:15:58.452Z,102081.88
2022-12-04T03:18:34.088Z,102085.53
2022-12-04T03:21:06.447Z,102076.78
2022-12-04T03:23:41.047Z,102083.81
2022-12-04T03:26:15.527Z,102080.72
2022-12-04T03:29:00.361Z,102084.56
2022-12-04T03:31:45.122Z,102079.34
2022-12-04T03:34:15.597Z,102075.81
2022-12-04T03:36:52.109Z,102082.84
2022-12-04T03:39:28.010Z,102084.50
2022-12-04T03:42:08.403Z,102078.28
2022-12-04T03:44:46.194Z,102084.41
2022-12-04T03:47:26.895Z,102071.44
2022-12-04T03:50:00.451Z,102074.94
2022-12-04T03:52:37.053Z,102080.88
2022-12-04T03:55:55.798Z,102089.50
2022-12-04T03:58:27.997Z,102072.91
2022-12-04T04:00:56.894Z,102080.88
2022-12-04T04:03:28.665Z,102071.97
2022-12-04T04:06:02.139Z,102059.78
2022-12-04T04:08:34.903Z,102055.69
2022-12-04T04:11:20.057Z,102035.69
2022-12-04T04:14:17.324Z,102068.38
2022-12-04T04:17:13.835Z,102056.28
2022-12-04T04:20:03.551Z,102059.94
2022-12-04T04:22:54.502Z,102061.66
2022-12-04T04:25:25.703Z,102053.00
2022-12-04T04:27:57.878Z,102065.03
2022-12-04T04:30:27.370Z,102062.28
2022-12-04T04:33:06.145Z,102057.81
2022-12-04T04:35:35.589Z,102064.06
2022-12-04T04:38:27.747Z,102060.41
2022-12-04T04:41:06.225Z,102064.00
2022-12-04T04:43:38.247Z,102049.56
2022-12-04T04:46:17.273Z,102060.44
2022-12-04T04:48:52.069Z,102056.28
2022-12-04T04:51:19.498Z,102060.78
2022-12-04T04:53:50.457Z,102067.56
2022-12-04T04:56:17.740Z,102067.56
2022-12-04T04:58:44.217Z,102068.47
2022-12-04T05:01:16.589Z,102052.06
2022-12-04T05:03:43.319Z,102067.63
2022-12-04T05:06:10.411Z,102067.63
2022-12-04T05:08:37.148Z,102066.75
2022-12-04T05:11:04.797Z,102061.81
2022-12-04T05:13:31.719Z,102079.09
2022-12-04T05:16:02.568Z,102080.75
2022-12-04T05:18:30.596Z,102085.22
2022-12-04T05:20:57.211Z,102080.00
2022-12-04T05:23:24.394Z,102086.88
2022-12-04T05:25:50.848Z,102085.16
2022-12-04T05:28:17.446Z,102086.94
2022-12-04T05:30:43.891Z,102087.69
2022-12-04T05:33:10.945Z,102075.41
2022-12-04T05:35:37.742Z,102072.03
2022-12-04T05:38:04.138Z,102065.25
2022-12-04T05:40:30.546Z,102077.13
2022-12-04T05:42:57.296Z,102068.53
2022-12-04T05:45:23.959Z,102053.84
2022-12-04T05:47:50.393Z,102059.00
2022-12-04T05:50:16.912Z,102066.81
2022-12-04T05:52:43.429Z,102071.25
2022-12-04T05:55:09.872Z,102074.72
2022-12-04T05:57:36.314Z,102086.03
2022-12-04T06:00:04.068Z,102081.59
2022-12-04T06:02:30.603Z,102074.88
2022-12-04T06:04:57.120Z,102070.38
2022-12-04T06:07:23.834Z,102076.44
2022-12-04T06:09:50.268Z,102078.22
2022-12-04T06:12:16.765Z,102078.16
2022-12-04T06:14:43.310Z,102081.66
2022-12-04T06:17:09.734Z,102075.66
2022-12-04T06:19:36.393Z,102060.97
2022-12-04T06:22:02.927Z,102065.44
2022-12-04T06:24:29.365Z,102086.09
2022-12-04T06:27:26.717Z,102089.56
2022-12-04T06:29:44.470Z,102089.63
2022-12-04T06:32:12.260Z,102094.00
2022-12-04T06:34:41.586Z,102088.72
2022-12-04T06:37:09.349Z,102071.56
2022-12-04T06:39:36.067Z,102092.22
2022-12-04T06:42:02.561Z,102088.78
2022-12-04T06:44:29.024Z,102087.16
2022-12-04T06:46:55.456Z,102076.59
2022-12-04T06:49:22.933Z,102083.56
2022-12-04T06:51:49.441Z,102095.78
2022-12-04T06:54:15.868Z,102081.13
2022-12-04T06:56:42.526Z,102084.56
2022-12-04T06:59:10.282Z,102095.72
2022-12-04T07:01:37.160Z,102102.69
2022-12-04T07:04:04.367Z,102094.78
2022-12-04T07:06:36.206Z,102100.00
2022-12-04T07:09:15.006Z,102092.16
2022-12-04T07:11:42.392Z,102110.44
2022-12-04T07:14:09.446Z,102095.66
2022-12-04T07:16:40.705Z,102095.47
2022-12-04T07:19:09.442Z,102101.59
2022-12-04T07:21:35.918Z,102087.75
2022-12-04T07:24:02.445Z,102097.19
2022-12-04T07:26:30.856Z,102104.97
2022-12-04T07:28:58.239Z,102098.91
2022-12-04T07:31:27.045Z,102103.97
2022-12-04T07:33:54.436Z,102102.13
2022-12-04T07:36:21.818Z,102091.00
2022-12-04T07:38:48.536Z,102105.56
2022-12-04T07:41:15.264Z,102106.44
2022-12-04T07:43:42.511Z,102112.50
2022-12-04T07:46:13.385Z,102105.56
2022-12-04T07:48:40.482Z,102087.22
2022-12-04T07:51:15.573Z,102107.97
2022-12-04T07:53:42.981Z,102098.97
2022-12-04T07:56:10.550Z,102097.16
2022-12-04T07:58:37.094Z,102098.06
2022-12-04T08:01:12.889Z,102099.72
2022-12-04T08:03:46.785Z,102100.69
2022-12-04T08:06:15.202Z,102108.81
2022-12-04T08:08:41.927Z,102100.97
2022-12-04T08:11:11.042Z,102102.28
2022-12-04T08:13:37.692Z,102104.06
2022-12-04T08:16:06.796Z,102107.28
2022-12-04T08:18:33.530Z,102109.69
2022-12-04T08:21:07.932Z,102100.78
2022-12-04T08:23:35.179Z,102105.94
2022-12-04T08:26:02.903Z,102093.00
2022-12-04T08:28:29.855Z,102102.19
2022-12-04T08:31:06.175Z,102102.09
2022-12-04T08:33:33.306Z,102096.91
2022-12-04T08:36:01.663Z,102106.16
2022-12-04T08:38:28.135Z,102095.78
2022-12-04T08:40:54.615Z,102105.97
2022-12-04T08:43:21.090Z,102098.75
2022-12-04T08:45:55.870Z,102097.63
2022-12-04T08:48:22.354Z,102096.78
2022-12-04T08:50:48.775Z,102110.63
2022-12-04T08:53:15.385Z,102114.50
2022-12-04T08:55:42.001Z,102106.53
2022-12-04T08:58:08.439Z,102098.47
2022-12-04T09:00:35.085Z,102105.31
2022-12-04T09:03:01.572Z,102098.41
2022-12-04T09:05:29.949Z,102109.47
2022-12-04T09:07:57.177Z,102098.91
2022-12-04T09:10:24.473Z,102077.97
2022-12-04T09:12:50.981Z,102100.41
2022-12-04T09:15:17.477Z,102094.84
2022-12-04T09:17:43.917Z,102096.50
2022-12-04T09:20:10.548Z,102102.44
2022-12-04T09:23:02.186Z,102094.50
2022-12-04T09:25:23.653Z,102108.22
2022-12-04T09:27:50.117Z,102090.50
2022-12-04T09:30:16.687Z,102098.03
2022-12-04T09:32:43.146Z,102093.56
2022-12-04T09:35:09.614Z,102102.00
2022-12-04T09:37:36.690Z,102092.00
2022-12-04T09:40:05.313Z,102103.13
2022-12-04T09:42:34.822Z,102098.34
2022-12-04T09:45:13.477Z,102095.53
2022-12-04T09:47:46.632Z,102091.69
2022-12-04T09:50:26.585Z,102087.91
2022-12-04T09:53:01.052Z,102092.06
2022-12-04T09:55:39.964Z,102087.34
2022-12-04T09:58:13.672Z,102082.13
2022-12-04T10:00:42.578Z,102087.22
2022-12-04T10:03:18.157Z,102091.03
2022-12-04T10:06:16.494Z,102089.78
2022-12-04T10:08:46.177Z,102073.91
2022-12-04T10:11:18.709Z,102071.75
2022-12-04T10:14:06.017Z,102066.38
2022-12-04T10:16:38.614Z,102071.34
2022-12-04T10:19:24.016Z,102074.31
2022-12-04T10:21:50.403Z,102069.00
2022-12-04T10:24:27.555Z,102069.53
2022-12-04T10:26:58.813Z,102073.19
2022-12-04T10:29:32.573Z,102076.63
2022-12-04T10:32:15.513Z,102079.81
2022-12-04T10:34:45.810Z,102074.53
2022-12-04T10:37:14.108Z,102061.88
2022-12-04T10:39:49.391Z,102053.34
2022-12-04T10:42:57.764Z,102071.16
2022-12-04T10:45:24.403Z,102069.66
2022-12-04T10:47:52.658Z,102064.63
2022-12-04T10:50:22.087Z,102075.75
2022-12-04T10:52:48.892Z,102063.78
2022-12-04T10:55:15.533Z,102041.34
2022-12-04T10:57:46.953Z,102066.94
2022-12-04T11:00:31.703Z,102060.56
2022-12-04T11:03:08.498Z,102060.63
2022-12-04T11:05:42.800Z,102045.84
2022-12-04T11:08:22.372Z,102043.88
2022-12-04T11:10:57.820Z,102044.66
2022-12-04T11:13:24.725Z,102030.09
2022-12-04T11:15:54.354Z,102046.31
2022-12-04T11:18:23.947Z,102047.94
2022-12-04T11:21:03.289Z,102041.72
2022-12-04T11:23:34.223Z,102039.22
2022-12-04T11:26:05.873Z,102037.34
2022-12-04T11:28:41.777Z,102035.44
2022-12-04T11:31:15.701Z,102043.31
2022-12-04T11:33:49.198Z,102030.16
2022-12-04T11:36:42.241Z,102031.56
2022-12-04T11:39:20.424Z,102024.69
2022-12-04T11:41:46.963Z,102032.47
2022-12-04T11:44:30.236Z,102023.56
2022-12-04T11:47:01.823Z,102028.00
2022-12-04T11:49:29.848Z,102011.44
2022-12-04T11:51:56.511Z,102020.97
2022-12-04T11:54:38.020Z,102019.81
2022-12-04T11:57:19.314Z,102012.00
2022-12-04T11:59:56.963Z,102000.84
2022-12-04T12:02:48.871Z,102011.00
2022-12-04T12:05:15.319Z,102012.09
2022-12-04T12:08:03.234Z,102008.50
2022-12-04T12:10:33.129Z,102011.09
2022-12-04T12:13:30.494Z,102000.41
2022-12-04T12:16:06.065Z,102004.94
2022-12-04T12:19:08.498Z,102009.44
2022-12-04T12:21:51.134Z,102005.00
2022-12-04T12:24:55.439Z,102003.91
2022-12-04T12:27:50.445Z,102010.06
2022-12-04T12:30:21.997Z,102010.91
2022-12-04T12:33:16.603Z,102008.16
2022-12-04T12:36:04.779Z,102007.31
2022-12-04T12:38:41.772Z,102011.78
2022-12-04T12:41:16.599Z,102015.16
2022-12-04T12:43:49.185Z,102005.28
2022-12-04T12:46:39.229Z,102003.41
2022-12-04T12:49:14.350Z,102005.81
2022-12-04T12:51:46.973Z,101998.78
2022-12-04T12:54:45.926Z,101998.50
2022-12-04T12:57:20.299Z,101989.72
2022-12-04T12:59:51.735Z,101987.09
2022-12-04T13:02:37.020Z,101983.38
2022-12-04T13:05:10.800Z,101985.78
2022-12-04T13:07:58.892Z,101982.19
2022-12-04T13:10:44.122Z,101977.50
2022-12-04T13:13:22.127Z,101969.72
2022-12-04T13:16:08.013Z,101963.47
2022-12-04T13:18:41.863Z,101961.69
2022-12-04T13:21:17.186Z,101956.63
2022-12-04T13:24:19.410Z,101947.56
2022-12-04T13:27:01.097Z,101950.06
2022-12-04T13:29:59.568Z,101947.56
2022-12-04T13:32:54.450Z,101944.00
2022-12-04T13:35:21.042Z,101949.13
2022-12-04T13:38:18.182Z,101949.78
2022-12-04T13:40:51.353Z,101926.28
2022-12-04T13:43:30.904Z,101928.47
2022-12-04T13:46:01.857Z,101929.59
2022-12-04T13:48:36.806Z,101930.13
2022-12-04T13:51:05.340Z,101933.63
2022-12-04T13:53:37.268Z,101919.41
2022-12-04T13:56:09.418Z,101926.59
2022-12-04T13:58:37.839Z,101931.56
2022-12-04T14:01:30.850Z,101939.25
2022-12-04T14:03:59.605Z,101938.38
2022-12-04T14:06:34.077Z,101951.63
2022-12-04T14:09:04.805Z,101949.94
2022-12-04T14:11:42.496Z,101946.53
2022-12-04T14:14:26.820Z,101947.19
2022-12-04T14:16:54.928Z,101937.53
2022-12-04T14:19:29.273Z,101940.00
2022-12-04T14:21:55.831Z,101948.91
2022-12-04T14:24:25.545Z,101951.38
2022-12-04T14:29:49.464Z,101937.19
2022-12-04T14:32:21.356Z,101931.38
2022-12-04T14:34:48.628Z,101927.28
2022-12-04T14:37:31.380Z,101932.81
2022-12-04T14:40:00.617Z,101938.22
2022-12-04T14:42:48.876Z,101937.88
2022-12-04T14:45:31.243Z,101934.69
2022-12-04T14:48:28.827Z,101946.75
2022-12-04T14:51:18.293Z,101937.09
2022-12-04T14:53:50.902Z,101936.50
2022-12-04T14:56:35.454Z,101942.56
2022-12-04T14:59:16.942Z,101946.94
2022-12-04T15:01:47.108Z,101936.41
2022-12-04T15:04:23.156Z,101940.69
2022-12-04T15:06:55.416Z,101934.69
2022-12-04T15:09:43.748Z,101934.44
2022-12-04T15:12:34.167Z,101918.88
2022-12-04T15:15:28.520Z,101928.97
2022-12-04T15:18:02.512Z,101929.06
2022-12-04T15:20:39.408Z,101926.41
2022-12-04T15:23:06.411Z,101908.47
2022-12-04T15:25:54.333Z,101922.53
2022-12-04T15:28:40.711Z,101904.50
2022-12-04T15:31:14.413Z,101915.03
2022-12-04T15:33:41.653Z,101910.84
2022-12-04T15:36:18.195Z,101916.47
2022-12-04T15:38:46.610Z,101914.94
2022-12-04T15:41:45.707Z,101921.59
2022-12-04T15:44:32.182Z,101924.22
2022-12-04T15:47:01.830Z,101913.84
2022-12-04T15:49:32.573Z,101912.88
2022-12-04T15:52:13.299Z,101920.63
2022-12-04T15:54:53.665Z,101905.03
2022-12-04T15:58:12.440Z,101914.03
2022-12-04T16:00:42.375Z,101922.34
2022-12-04T16:03:37.377Z,101918.50
2022-12-04T16:06:05.522Z,101916.88
2022-12-04T16:08:38.518Z,101917.72
2022-12-04T16:11:06.503Z,101916.88
2022-12-04T16:13:38.550Z,101923.72
2022-12-04T16:16:08.168Z,101914.22
2022-12-04T16:18:34.956Z,101917.47
2022-12-04T16:21:01.725Z,101893.94
2022-12-04T16:23:28.195Z,101900.59
2022-12-04T16:25:54.670Z,101898.81
2022-12-04T16:28:21.192Z,101903.91
2022-12-04T16:30:50.015Z,101890.84
2022-12-04T16:33:16.642Z,101901.09
2022-12-04T16:35:43.040Z,101891.50
2022-12-04T16:38:15.553Z,101888.97
2022-12-04T16:40:43.065Z,101900.91
2022-12-04T16:43:13.833Z,101904.41
2022-12-04T16:45:45.291Z,101903.38
2022-12-04T16:48:11.831Z,101903.28
2022-12-04T16:50:38.302Z,101897.13
2022-12-04T16:53:04.792Z,101884.31
2022-12-04T16:55:34.670Z,101881.47
2022-12-04T16:58:02.778Z,101899.31
2022-12-04T17:00:29.636Z,101903.75
2022-12-04T17:02:56.745Z,101912.56
2022-12-04T17:05:26.745Z,101902.34
2022-12-04T17:07:53.895Z,101903.84
2022-12-04T17:10:24.034Z,101908.13
2022-12-04T17:12:53.468Z,101914.28
2022-12-04T17:15:19.926Z,101916.94
2022-12-04T17:17:46.609Z,101908.41
2022-12-04T17:20:16.040Z,101907.44
2022-12-04T17:22:42.830Z,101915.41
2022-12-04T17:25:09.999Z,101917.72
2022-12-04T17:27:37.020Z,101931.56
2022-12-04T17:30:05.011Z,101934.13
2022-12-04T17:32:32.628Z,101925.50
2022-12-04T17:34:59.198Z,101935.06
2022-12-04T17:37:26.053Z,101939.22
2022-12-04T17:39:52.501Z,101942.09
2022-12-04T17:42:19.335Z,101933.53
2022-12-04T17:44:45.800Z,101946.44
2022-12-04T17:47:12.390Z,101932.03
2022-12-04T17:49:39.032Z,101929.84
2022-12-04T17:52:05.569Z,101939.34
2022-12-04T17:54:32.150Z,101936.47
2022-12-04T17:56:58.581Z,101939.34
2022-12-04T17:59:25.052Z,101945.22
2022-12-04T18:01:51.486Z,101945.22
2022-12-04T18:04:19.307Z,101938.28
2022-12-04T18:06:46.486Z,101944.19
2022-12-04T18:09:15.860Z,101941.44
2022-12-04T18:11:45.112Z,101930.06
2022-12-04T18:14:14.318Z,101946.66
2022-12-04T18:16:44.100Z,101943.16
2022-12-04T18:19:11.351Z,101942.38
2022-12-04T18:21:37.774Z,101948.38
2022-12-04T18:24:05.329Z,101926.53
2022-12-04T18:26:35.021Z,101945.63
2022-12-04T18:29:01.966Z,101929.28
2022-12-04T18:31:28.489Z,101943.91
2022-12-04T18:33:54.918Z,101948.53
2022-12-04T18:36:24.178Z,101957.00
2022-12-04T18:38:55.976Z,101957.84
2022-12-04T18:41:23.561Z,101956.16
2022-12-04T18:43:50.693Z,101947.78
2022-12-04T18:46:18.064Z,101953.59
2022-12-04T18:48:45.906Z,101950.16
2022-12-04T18:51:21.840Z,101958.81
2022-12-04T18:53:49.209Z,101951.09
2022-12-04T18:56:15.851Z,101949.41
2022-12-04T18:58:42.783Z,101954.44
2022-12-04T19:01:11.639Z,101948.28
2022-12-04T19:03:38.300Z,101945.88
2022-12-04T19:06:04.884Z,101959.75
2022-12-04T19:08:34.950Z,101950.84
2022-12-04T19:11:11.745Z,101956.88
2022-12-04T19:13:38.654Z,101943.91
2022-12-04T19:16:10.281Z,101957.00
2022-12-04T19:18:36.806Z,101958.03
2022-12-04T19:21:05.569Z,101950.25
2022-12-04T19:23:32.003Z,101952.06
2022-12-04T19:26:00.116Z,101963.16
2022-12-04T19:28:30.542Z,101962.41
2022-12-04T19:30:57.438Z,101966.66
2022-12-04T19:33:25.067Z,101965.69
2022-12-04T19:36:01.621Z,101962.09
2022-12-04T19:38:29.615Z,101963.03
2022-12-04T19:41:09.331Z,101953.75
2022-12-04T19:43:42.058Z,101958.69
2022-12-04T19:46:11.121Z,101953.50
2022-12-04T19:48:38.451Z,101969.31
2022-12-04T19:51:08.343Z,101958.91
2022-12-04T19:53:40.693Z,101963.16
2022-12-04T19:56:15.274Z,101964.00
2022-12-04T19:58:42.810Z,101944.84
2022-12-04T20:01:14.070Z,101956.88
2022-12-04T20:03:40.980Z,101941.06
2022-12-04T20:06:14.821Z,101943.81
2022-12-04T20:08:42.390Z,101947.25
2022-12-04T20:11:17.636Z,101945.63
2022-12-04T20:13:45.755Z,101943.16
2022-12-04T20:16:14.462Z,101934.50
2022-12-04T20:18:42.442Z,101943.06
2022-12-04T20:21:12.699Z,101936.88
2022-12-04T20:23:39.669Z,101939.75
2022-12-04T20:26:08.605Z,101924.84
2022-12-04T20:28:36.309Z,101925.88
2022-12-04T20:31:15.753Z,101936.22
2022-12-04T20:33:43.202Z,101925.69
2022-12-04T20:36:10.894Z,101929.19
2022-12-04T20:38:37.845Z,101929.09
2022-12-04T20:41:10.552Z,101927.41
2022-12-04T20:43:37.203Z,101921.06
2022-12-04T20:46:17.312Z,101920.03
2022-12-04T20:48:48.343Z,101919.25
2022-12-04T20:51:25.687Z,101919.53
2022-12-04T20:53:53.934Z,101914.13
2022-12-04T20:56:25.951Z,101922.75
2022-12-04T20:58:57.892Z,101920.38
2022-12-04T21:01:24.973Z,101929.28
2022-12-04T21:03:53.111Z,101928.16
2022-12-04T21:06:34.019Z,101925.31
2022-12-04T21:09:10.183Z,101925.50
2022-12-04T21:11:40.178Z,101918.59
2022-12-04T21:14:31.646Z,101913.78
2022-12-04T21:16:58.427Z,101913.94
2022-12-04T21:19:26.030Z,101910.53
2022-12-04T21:21:52.852Z,101905.31
2022-12-04T21:24:21.439Z,101901.63
2022-12-04T21:26:48.224Z,101913.84
2022-12-04T21:29:15.487Z,101898.97
2022-12-04T21:31:42.428Z,101906.66
2022-12-04T21:34:12.489Z,101898.88
2022-12-04T21:36:39.700Z,101902.38
2022-12-04T21:39:07.705Z,101897.06
2022-12-04T21:41:53.280Z,101897.25
2022-12-04T21:44:21.194Z,101899.72
2022-12-04T21:46:48.578Z,101913.00
2022-12-04T21:49:16.585Z,101889.47
2022-12-04T21:51:59.234Z,101906.75
2022-12-04T21:54:29.631Z,101890.25
2022-12-04T21:56:59.381Z,101893.56
2022-12-04T21:59:26.269Z,101893.47
2022-12-04T22:01:52.936Z,101895.28
2022-12-04T22:04:19.782Z,101898.78
2022-12-04T22:06:46.394Z,101874.31
2022-12-04T22:09:13.269Z,101872.06
2022-12-04T22:11:43.369Z,101871.56
2022-12-04T22:14:11.067Z,101864.56
2022-12-04T22:16:42.006Z,101869.00
2022-12-04T22:19:10.133Z,101872.34
2022-12-04T22:21:36.544Z,101868.66
2022-12-04T22:24:04.262Z,101880.97
2022-12-04T22:26:31.753Z,101866.16
2022-12-04T22:28:58.234Z,101873.28
2022-12-04T22:31:26.806Z,101873.38
2022-12-04T22:33:55.729Z,101883.63
2022-12-04T22:36:24.948Z,101876.88
2022-12-04T22:39:09.752Z,101876.97
2022-12-04T22:41:37.391Z,101888.94
2022-12-04T22:44:04.022Z,101878.50
2022-12-04T22:46:30.710Z,101878.22
2022-12-04T22:48:58.924Z,101887.88
2022-12-04T22:51:25.737Z,101890.72
2022-12-04T22:53:54.602Z,101887.88
2022-12-04T22:56:26.620Z,101887.78
2022-12-04T22:58:53.891Z,101879.91
2022-12-04T23:01:28.242Z,101888.63
2022-12-04T23:03:55.259Z,101882.47
2022-12-04T23:06:25.840Z,101878.88
2022-12-04T23:09:01.720Z,101884.00
2022-12-04T23:11:29.060Z,101881.59
2022-12-04T23:13:59.936Z,101873.56
2022-12-04T23:16:29.670Z,101873.56
2022-12-04T23:18:57.113Z,101881.44
2022-12-04T23:21:24.845Z,101880.56
2022-12-04T23:23:52.740Z,101868.16
2022-12-04T23:26:26.218Z,101872.50
2022-12-04T23:28:53.122Z,101869.88
2022-12-04T23:31:19.733Z,101858.66
2022-12-04T23:33:46.299Z,101852.50
2022-12-04T23:36:13.892Z,101865.50
2022-12-04T23:38:41.781Z,101856.00
2022-12-04T23:41:12.377Z,101859.50
2022-12-04T23:43:39.872Z,101860.38
2022-12-04T23:46:11.011Z,101860.19
2022-12-04T23:48:39.320Z,101869.94
2022-12-04T23:51:06.394Z,101866.44
2022-12-04T23:53:32.840Z,101863.88
2022-12-04T23:56:02.420Z,101858.66
2022-12-04T23:58:28.892Z,101854.22
